Time;durP1;ratioP1;P1;durP2;ratioP2;P2;SDS_P1;SDS_P2;PMS_P1;PMS_P2;Temp;Humidity;BMP_temperature;BMP_pressure;BME280_temperature;BME280_humidity;BME280_pressure;Samples;Min_cycle;Max_cycle;Signal;HPM_P1;HPM_P2
2023/09/27 00:13:43;;;;;;;44.10;23.20;;;;;;;15.55;100.00;101269.42;668972;1262;140192;-78
2023/09/27 00:28:47;;;;;;;45.90;24.30;;;;;;;15.41;100.00;101264.48;668996;1261;140034;-78
2023/09/27 00:43:50;;;;;;;46.00;25.10;;;;;;;15.23;100.00;101258.36;668857;1263;139172;-78
2023/09/27 00:58:54;;;;;;;45.70;24.60;;;;;;;15.20;100.00;101256.76;668978;1261;139542;-78
2023/09/27 01:13:58;;;;;;;43.60;24.40;;;;;;;15.18;100.00;101251.05;669994;1261;140019;-78
2023/09/27 01:29:01;;;;;;;48.50;26.70;;;;;;;15.41;100.00;101240.85;671618;1262;139885;-78
2023/09/27 01:44:05;;;;;;;52.20;26.20;;;;;;;15.31;100.00;101237.71;668892;1262;139962;-78
2023/09/27 01:59:08;;;;;;;49.00;26.90;;;;;;;15.27;100.00;101242.14;669042;1273;140961;-78
2023/09/27 02:14:12;;;;;;;47.60;25.50;;;;;;;15.23;100.00;101237.30;668665;1262;172883;-78
2023/09/27 02:29:15;;;;;;;60.00;26.70;;;;;;;15.17;100.00;101236.69;668853;1274;139692;-78
2023/09/27 02:44:19;;;;;;;57.70;28.20;;;;;;;15.15;100.00;101234.67;668549;1262;139657;-78
2023/09/27 02:59:23;;;;;;;52.30;28.60;;;;;;;15.11;100.00;101238.02;668461;1261;139301;-78
2023/09/27 03:14:28;;;;;;;51.70;26.40;;;;;;;15.50;99.92;101228.77;668649;1262;140329;-78
2023/09/27 03:29:32;;;;;;;51.70;25.90;;;;;;;15.88;98.19;101233.65;667880;1262;142566;-77
2023/09/27 03:44:36;;;;;;;47.60;24.40;;;;;;;14.94;99.93;101221.60;668840;1262;139133;-77
2023/09/27 03:59:39;;;;;;;63.10;31.90;;;;;;;15.54;98.56;101215.72;668908;1259;139375;-78
2023/09/27 04:14:43;;;;;;;63.30;28.60;;;;;;;15.07;99.21;101215.59;668957;1260;139110;-78
2023/09/27 04:29:46;;;;;;;93.30;37.40;;;;;;;14.82;100.00;101223.51;668781;1264;140604;-77
2023/09/27 04:44:50;;;;;;;77.90;36.20;;;;;;;14.50;100.00;101230.49;668527;1260;140253;-78
2023/09/27 04:59:53;;;;;;;71.90;34.10;;;;;;;13.81;100.00;101232.78;668532;1262;139365;-78
2023/09/27 05:14:58;;;;;;;70.10;31.90;;;;;;;13.97;100.00;101233.00;668918;1262;139447;-77
2023/09/27 05:30:03;;;;;;;65.50;37.40;;;;;;;14.26;100.00;101240.64;668554;1262;140576;-78
2023/09/27 05:45:10;;;;;;;66.10;35.30;;;;;;;14.82;100.00;101243.23;668288;1263;140104;-77
2023/09/27 06:00:21;;;;;;;68.90;39.20;;;;;;;15.48;100.00;101235.48;668713;1265;139507;-78
2023/09/27 06:15:25;;;;;;;46.40;29.20;;;;;;;19.04;100.00;101243.69;670153;1273;140518;-78
2023/09/27 06:30:29;;;;;;;41.80;24.70;;;;;;;23.02;99.72;101257.59;669095;1265;139611;-77
2023/09/27 06:45:32;;;;;;;35.90;24.90;;;;;;;25.31;94.06;101258.93;676842;1262;138384;-76
2023/09/27 07:00:40;;;;;;;36.70;25.50;;;;;;;25.97;88.89;101273.73;668472;1263;139521;-78
2023/09/27 07:15:45;;;;;;;;;;;;;;;26.18;86.07;101287.78;670193;1263;139766;-77
2023/09/27 07:30:49;;;;;;;33.90;25.60;;;;;;;24.89;86.25;101295.54;668924;1263;124508;-77
2023/09/27 07:45:54;;;;;;;31.40;24.50;;;;;;;25.26;89.75;101302.47;669072;1262;138772;-76
2023/09/27 08:00:58;;;;;;;37.00;26.00;;;;;;;27.42;82.59;101298.69;668809;1263;139501;-76
2023/09/27 08:16:04;;;;;;;33.40;25.80;;;;;;;28.19;79.10;101293.28;668752;1257;139530;-76
2023/09/27 08:31:09;;;;;;;31.80;22.70;;;;;;;28.07;77.20;101293.23;668513;1263;139989;-77
2023/09/27 08:46:13;;;;;;;28.50;23.50;;;;;;;29.48;75.96;101292.89;668771;1263;139216;-77
2023/09/27 09:01:18;;;;;;;29.60;21.30;;;;;;;29.50;74.02;101289.13;674334;1265;138746;-77
2023/09/27 09:16:23;;;;;;;26.20;19.90;;;;;;;29.83;72.25;101273.91;667868;1261;138676;-77
2023/09/27 09:31:29;;;;;;;28.80;20.40;;;;;;;29.89;73.51;101266.77;667427;1264;138989;-77
2023/09/27 09:46:32;;;;;;;23.70;17.10;;;;;;;30.18;72.16;101260.19;667637;1264;140090;-78
2023/09/27 10:01:38;;;;;;;24.90;15.20;;;;;;;31.04;68.14;101255.29;667984;1264;140233;-77
2023/09/27 10:16:43;;;;;;;19.60;13.70;;;;;;;30.83;67.97;101243.95;667468;1265;138901;-78
2023/09/27 10:32:01;;;;;;;18.00;12.80;;;;;;;31.53;67.07;101231.86;667337;1260;139064;-77
2023/09/27 10:47:04;;;;;;;18.00;11.80;;;;;;;31.45;64.54;101228.06;667547;1265;138454;-77
2023/09/27 11:02:08;;;;;;;16.00;11.50;;;;;;;30.57;64.51;101214.85;667935;1265;138599;-78
2023/09/27 11:17:22;;;;;;;18.90;12.30;;;;;;;30.31;64.60;101207.17;667216;1268;138940;-78
2023/09/27 11:32:25;;;;;;;15.80;9.60;;;;;;;30.48;64.18;101193.91;667681;1264;138307;-76
2023/09/27 11:47:47;;;;;;;13.70;8.00;;;;;;;30.58;61.45;101183.84;668576;1267;138898;-76
2023/09/27 12:02:51;;;;;;;12.30;7.80;;;;;;;30.45;60.78;101176.95;667446;1266;138683;-76
2023/09/27 12:18:00;;;;;;;10.40;7.30;;;;;;;30.18;59.64;101169.55;672135;1265;138293;-77
2023/09/27 12:33:04;;;;;;;22.30;7.80;;;;;;;30.19;60.04;101158.75;668143;1266;138805;-77
2023/09/27 12:48:08;;;;;;;15.10;7.40;;;;;;;30.05;59.90;101153.94;668398;1263;139302;-77
2023/09/27 13:03:12;;;;;;;12.10;7.40;;;;;;;30.14;60.65;101146.83;667486;1265;138325;-77
2023/09/27 13:18:15;;;;;;;9.40;7.00;;;;;;;29.94;59.81;101134.55;667502;1273;137997;-77
2023/09/27 13:33:19;;;;;;;12.00;7.40;;;;;;;29.73;60.63;101122.87;667747;1282;138253;-77
2023/09/27 13:48:23;;;;;;;13.00;7.70;;;;;;;29.86;60.69;101112.40;667513;1267;138326;-77
2023/09/27 14:03:26;;;;;;;13.20;7.20;;;;;;;29.61;61.33;101094.32;667874;1270;138625;-77
2023/09/27 14:18:30;;;;;;;14.30;7.50;;;;;;;29.32;61.65;101083.24;667459;1264;155491;-77
2023/09/27 14:33:34;;;;;;;15.10;7.80;;;;;;;29.12;62.37;101068.52;668709;1270;138045;-77
2023/09/27 14:48:40;;;;;;;12.20;8.00;;;;;;;28.89;63.04;101062.09;668236;1264;137884;-76
2023/09/27 15:03:44;;;;;;;16.90;8.10;;;;;;;28.62;63.30;101056.39;668214;1264;138057;-76
2023/09/27 15:18:47;;;;;;;14.80;7.90;;;;;;;28.28;64.75;101048.61;667960;1264;138890;-77
2023/09/27 15:33:51;;;;;;;15.70;8.50;;;;;;;28.04;65.85;101055.45;668190;1275;139686;-77
2023/09/27 15:48:55;;;;;;;16.70;9.70;;;;;;;27.65;67.46;101061.92;667855;1263;138617;-78
2023/09/27 16:04:01;;;;;;;18.00;9.50;;;;;;;26.97;69.82;101063.77;667542;1264;138759;-77
2023/09/27 16:19:04;;;;;;;53.90;27.90;;;;;;;26.04;72.29;101065.93;667660;1262;139155;-77
2023/09/27 16:34:10;;;;;;;20.50;12.70;;;;;;;25.00;75.80;101067.89;668062;1264;139190;-78
2023/09/27 16:49:19;;;;;;;26.20;17.40;;;;;;;24.03;79.13;101069.79;668589;1260;138328;-77
2023/09/27 17:04:24;;;;;;;22.70;15.70;;;;;;;23.36;80.92;101074.44;667728;1260;139991;-76
2023/09/27 17:19:28;;;;;;;29.10;17.70;;;;;;;22.83;82.62;101081.49;667989;1264;139751;-77
2023/09/27 17:34:31;;;;;;;25.80;16.60;;;;;;;22.44;84.10;101081.40;667473;1264;139230;-76
2023/09/27 17:49:35;;;;;;;28.10;20.30;;;;;;;22.03;84.67;101075.79;667686;1263;140857;-76
2023/09/27 18:04:39;;;;;;;37.60;24.60;;;;;;;21.61;86.65;101076.73;675398;1262;139616;-76
2023/09/27 18:19:42;;;;;;;39.80;21.60;;;;;;;21.29;87.32;101078.07;667435;1275;139579;-76
2023/09/27 18:34:46;;;;;;;27.90;17.60;;;;;;;20.91;88.89;101075.83;667732;1263;139873;-76
2023/09/27 18:49:49;;;;;;;39.10;22.20;;;;;;;20.82;89.17;101078.90;667702;1264;140325;-77
2023/09/27 19:04:52;;;;;;;96.40;50.30;;;;;;;20.54;91.08;101080.59;667797;1262;139377;-77
2023/09/27 19:19:56;;;;;;;69.00;35.30;;;;;;;20.28;92.63;101076.88;667568;1261;140086;-77
2023/09/27 19:34:59;;;;;;;30.70;19.50;;;;;;;19.99;93.97;101070.27;667457;1264;139686;-76
2023/09/27 19:50:05;;;;;;;39.50;20.10;;;;;;;20.20;95.26;101066.41;667526;1262;139896;-76
2023/09/27 20:05:09;;;;;;;48.90;28.30;;;;;;;20.48;93.59;101069.56;667653;1263;139211;-75
2023/09/27 20:20:13;;;;;;;54.80;31.50;;;;;;;19.83;94.44;101064.33;667659;1264;139557;-75
2023/09/27 20:35:17;;;;;;;53.80;31.60;;;;;;;19.30;96.24;101054.16;668147;1264;139367;-75
2023/09/27 20:50:21;;;;;;;62.90;36.60;;;;;;;18.99;97.50;101044.56;667662;1265;141269;-76
2023/09/27 21:05:24;;;;;;;29.20;18.20;;;;;;;18.86;98.39;101035.27;669268;1267;139876;-77
2023/09/27 21:20:28;;;;;;;36.60;20.20;;;;;;;19.12;98.95;101023.85;669480;1265;139090;-77
2023/09/27 21:35:31;;;;;;;31.70;20.20;;;;;;;19.37;98.20;101017.54;667932;1262;140002;-77
2023/09/27 21:50:35;;;;;;;28.50;18.60;;;;;;;19.68;99.52;101008.92;667609;1264;140439;-77
2023/09/27 22:05:40;;;;;;;29.40;19.30;;;;;;;19.97;98.66;101010.70;667623;1264;139507;-77
2023/09/27 22:20:45;;;;;;;27.80;20.40;;;;;;;19.99;96.17;101012.06;667577;1275;139335;-77
2023/09/27 22:35:51;;;;;;;34.10;21.70;;;;;;;19.58;96.53;101013.55;667518;1264;139558;-77
2023/09/27 22:50:59;;;;;;;33.20;20.00;;;;;;;19.35;96.58;101015.85;667834;1262;140581;-77
2023/09/27 23:06:03;;;;;;;30.50;20.80;;;;;;;18.88;97.50;101011.02;667664;1261;139515;-76
2023/09/27 23:21:29;;;;;;;33.80;20.90;;;;;;;18.44;99.29;101011.58;672613;1262;140509;-77
2023/09/27 23:36:38;;;;;;;30.60;19.90;;;;;;;18.15;99.71;101014.71;667668;1275;139947;-77
2023/09/27 23:51:42;;;;;;;36.90;23.30;;;;;;;17.84;99.82;101014.09;667252;1264;139479;-77
